createdAt,value
2017-06-28T00:00:03.965Z,16.22
2017-06-28T00:00:17.442Z,16.26
2017-06-28T00:00:30.352Z,16.33
2017-06-28T00:00:43.785Z,16.33
2017-06-28T00:00:57.314Z,16.32
2017-06-28T00:01:10.781Z,16.33
2017-06-28T00:01:24.234Z,16.37
2017-06-28T00:01:37.674Z,16.37
2017-06-28T00:01:51.093Z,16.37
2017-06-28T00:02:04.058Z,16.34
2017-06-28T00:02:16.934Z,16.34
2017-06-28T00:02:30.352Z,16.3
2017-06-28T00:02:43.777Z,16.34
2017-06-28T00:02:56.703Z,16.42
2017-06-28T00:03:10.139Z,16.37
2017-06-28T00:03:23.638Z,16.37
2017-06-28T00:03:37.123Z,16.32
2017-06-28T00:03:50.068Z,16.39
2017-06-28T00:04:03.594Z,16.3
2017-06-28T00:04:17.124Z,16.4
2017-06-28T00:04:30.556Z,16.39
2017-06-28T00:04:44.001Z,16.3
2017-06-28T00:04:57.439Z,16.34
2017-06-28T00:05:10.919Z,16.33
2017-06-28T00:05:24.061Z,16.34
2017-06-28T00:05:37.553Z,16.33
2017-06-28T00:05:50.991Z,16.25
2017-06-28T00:06:04.464Z,16.3
2017-06-28T00:06:17.398Z,16.32
2017-06-28T00:06:30.867Z,16.21
2017-06-28T00:06:44.293Z,16.27
2017-06-28T00:06:57.732Z,16.17
2017-06-28T00:07:10.150Z,16.22
2017-06-28T00:07:23.598Z,16.16
2017-06-28T00:07:37.064Z,16.21
2017-06-28T00:07:50.543Z,16.18
2017-06-28T00:08:03.460Z,16.17
2017-06-28T00:08:16.969Z,16.08
2017-06-28T00:08:30.367Z,16.02
2017-06-28T00:08:43.253Z,16.02
2017-06-28T00:08:56.782Z,16.02
2017-06-28T00:09:10.254Z,16
2017-06-28T00:09:23.738Z,16.08
2017-06-28T00:09:37.197Z,16.13
2017-06-28T00:09:50.657Z,16.06
2017-06-28T00:10:04.131Z,16.06
2017-06-28T00:10:17.594Z,16.06
2017-06-28T00:10:31.119Z,15.99
2017-06-28T00:10:44.579Z,16.02
2017-06-28T00:10:58.029Z,16
2017-06-28T00:11:11.554Z,16.08
2017-06-28T00:11:24.981Z,15.99
2017-06-28T00:11:38.424Z,16.02
2017-06-28T00:11:50.826Z,16.06
2017-06-28T00:12:04.328Z,16.02
2017-06-28T00:12:17.209Z,15.99
2017-06-28T00:12:30.697Z,15.98
2017-06-28T00:12:44.184Z,15.99
2017-06-28T00:12:57.164Z,15.98
2017-06-28T00:13:10.593Z,16
2017-06-28T00:13:24.102Z,15.98
2017-06-28T00:13:37.564Z,16
2017-06-28T00:13:50.505Z,15.95
2017-06-28T00:14:03.921Z,16
2017-06-28T00:14:17.400Z,15.84
2017-06-28T00:14:30.330Z,15.98
2017-06-28T00:14:43.824Z,15.96
2017-06-28T00:14:57.223Z,15.92
2017-06-28T00:15:10.175Z,15.91
2017-06-28T00:15:23.569Z,15.93
2017-06-28T00:15:37.008Z,15.86
2017-06-28T00:15:49.931Z,15.88
2017-06-28T00:16:03.329Z,15.93
2017-06-28T00:16:16.823Z,15.91
2017-06-28T00:16:30.482Z,15.89
2017-06-28T00:16:44.010Z,15.91
2017-06-28T00:16:57.492Z,15.92
2017-06-28T00:17:11.019Z,15.95
2017-06-28T00:17:23.938Z,15.93
2017-06-28T00:17:37.442Z,15.88
2017-06-28T00:17:50.937Z,15.95
2017-06-28T00:18:03.883Z,15.84
2017-06-28T00:18:16.287Z,15.88
2017-06-28T00:18:29.796Z,15.83
2017-06-28T00:18:43.196Z,15.92
2017-06-28T00:18:56.627Z,15.83
2017-06-28T00:19:10.109Z,15.84
2017-06-28T00:19:23.604Z,15.8
2017-06-28T00:19:37.064Z,15.8
2017-06-28T00:19:49.975Z,15.8
2017-06-28T00:20:03.448Z,15.81
2017-06-28T00:20:16.901Z,15.83
2017-06-28T00:20:30.593Z,15.7
2017-06-28T00:20:44.045Z,15.73
2017-06-28T00:20:56.979Z,15.67
2017-06-28T00:21:10.124Z,15.6
2017-06-28T00:21:23.530Z,15.67
2017-06-28T00:21:36.989Z,15.65
2017-06-28T00:21:50.468Z,15.71
2017-06-28T00:22:03.906Z,15.73
2017-06-28T00:22:16.817Z,15.71
2017-06-28T00:22:30.284Z,15.71
2017-06-28T00:22:43.735Z,15.74
2017-06-28T00:22:56.628Z,15.67
2017-06-28T00:23:10.038Z,15.67
2017-06-28T00:23:23.516Z,15.71
2017-06-28T00:23:36.971Z,15.71
2017-06-28T00:23:49.904Z,15.71
2017-06-28T00:24:03.390Z,15.71
2017-06-28T00:24:16.863Z,15.7
2017-06-28T00:24:30.373Z,15.62
2017-06-28T00:24:43.805Z,15.68
2017-06-28T00:24:56.780Z,15.68
2017-06-28T00:25:10.235Z,15.74
2017-06-28T00:25:23.707Z,15.77
2017-06-28T00:25:37.222Z,15.74
2017-06-28T00:25:50.657Z,15.7
2017-06-28T00:26:04.117Z,15.71
2017-06-28T00:26:17.575Z,15.73
2017-06-28T00:26:31.028Z,15.73
2017-06-28T00:26:43.433Z,15.73
2017-06-28T00:26:56.878Z,15.73
2017-06-28T00:27:10.353Z,15.75
2017-06-28T00:27:23.850Z,15.78
2017-06-28T00:27:37.331Z,15.68
2017-06-28T00:27:50.751Z,15.75
2017-06-28T00:28:03.695Z,15.74
2017-06-28T00:28:17.234Z,15.67
2017-06-28T00:28:30.700Z,15.62
2017-06-28T00:28:44.176Z,15.71
2017-06-28T00:28:57.141Z,15.68
2017-06-28T00:29:10.597Z,15.63
2017-06-28T00:29:24.043Z,15.67
2017-06-28T00:29:36.996Z,15.74
2017-06-28T00:29:49.975Z,15.73
2017-06-28T00:30:03.452Z,15.7
2017-06-28T00:30:16.997Z,15.74
2017-06-28T00:30:30.453Z,15.68
2017-06-28T00:30:43.430Z,15.71
2017-06-28T00:30:56.902Z,15.71
2017-06-28T00:31:10.293Z,15.73
2017-06-28T00:31:23.171Z,15.63
2017-06-28T00:31:35.036Z,15.68
2017-06-28T00:31:48.496Z,15.6
2017-06-28T00:32:01.962Z,15.62
2017-06-28T00:32:15.430Z,15.68
2017-06-28T00:32:28.875Z,15.56
2017-06-28T00:32:42.333Z,15.59
2017-06-28T00:32:55.803Z,15.59
2017-06-28T00:33:09.222Z,15.59
2017-06-28T00:33:22.757Z,15.59
2017-06-28T00:33:36.177Z,15.59
2017-06-28T00:33:49.622Z,15.56
2017-06-28T00:34:03.057Z,15.55
2017-06-28T00:34:16.530Z,15.59
2017-06-28T00:34:30.038Z,15.65
2017-06-28T00:34:43.551Z,15.63
2017-06-28T00:34:56.466Z,15.63
2017-06-28T00:35:09.424Z,15.58
2017-06-28T00:35:22.898Z,15.56
2017-06-28T00:35:36.588Z,15.55
2017-06-28T00:35:50.058Z,15.49
2017-06-28T00:36:03.493Z,15.47
2017-06-28T00:36:16.986Z,15.52
2017-06-28T00:36:30.480Z,15.44
2017-06-28T00:36:43.905Z,15.49
2017-06-28T00:36:56.866Z,15.55
2017-06-28T00:37:09.788Z,15.47
2017-06-28T00:37:23.258Z,15.44
2017-06-28T00:37:36.764Z,15.41
2017-06-28T00:37:50.134Z,15.47
2017-06-28T00:38:03.092Z,15.44
2017-06-28T00:38:16.603Z,15.45
2017-06-28T00:38:30.050Z,15.43
2017-06-28T00:38:43.491Z,15.4
2017-06-28T00:38:56.952Z,15.4
2017-06-28T00:39:10.419Z,15.41
2017-06-28T00:39:23.872Z,15.47
2017-06-28T00:39:37.312Z,15.35
2017-06-28T00:39:50.764Z,15.3
2017-06-28T00:40:04.236Z,15.38
2017-06-28T00:40:17.698Z,15.3
2017-06-28T00:40:31.217Z,15.3
2017-06-28T00:40:44.650Z,15.38
2017-06-28T00:40:58.079Z,15.31
2017-06-28T00:41:11.580Z,15.27
2017-06-28T00:41:25.001Z,15.27
2017-06-28T00:41:38.512Z,15.3
2017-06-28T00:41:51.385Z,15.23
2017-06-28T00:42:04.329Z,15.19
2017-06-28T00:42:17.810Z,15.18
2017-06-28T00:42:31.470Z,15.1
2017-06-28T00:42:44.957Z,15.18
2017-06-28T00:42:58.453Z,15.16
2017-06-28T00:43:11.888Z,15.05
2017-06-28T00:43:25.413Z,15.1
2017-06-28T00:43:38.916Z,15.05
2017-06-28T00:43:52.377Z,15.12
2017-06-28T00:44:05.822Z,15.07
2017-06-28T00:44:19.309Z,15.05
2017-06-28T00:44:32.278Z,15.07
2017-06-28T00:44:45.792Z,15.08
2017-06-28T00:44:59.228Z,14.98
2017-06-28T00:45:12.736Z,15.01
2017-06-28T00:45:26.235Z,15
2017-06-28T00:45:39.651Z,14.98
2017-06-28T00:45:53.110Z,15.07
2017-06-28T00:46:06.557Z,15.04
2017-06-28T00:46:20.052Z,15
2017-06-28T00:46:33.523Z,15
2017-06-28T00:46:46.945Z,14.94
2017-06-28T00:47:00.361Z,15.01
2017-06-28T00:47:13.831Z,15
2017-06-28T00:47:27.267Z,14.9
2017-06-28T00:47:40.704Z,14.93
2017-06-28T00:47:53.624Z,14.94
2017-06-28T00:48:07.171Z,14.95
2017-06-28T00:48:20.087Z,14.94
2017-06-28T00:48:33.526Z,14.93
2017-06-28T00:48:46.429Z,14.79
2017-06-28T00:48:59.408Z,14.9
2017-06-28T00:49:12.919Z,15.01
2017-06-28T00:49:26.375Z,14.93
2017-06-28T00:49:39.857Z,14.94
2017-06-28T00:49:53.358Z,14.9
2017-06-28T00:50:06.243Z,14.98
2017-06-28T00:50:19.666Z,14.86
2017-06-28T00:50:33.153Z,14.93
2017-06-28T00:50:46.806Z,14.83
2017-06-28T00:51:00.327Z,14.87
2017-06-28T00:51:13.848Z,14.9
2017-06-28T00:51:27.338Z,14.89
2017-06-28T00:51:40.779Z,14.93
2017-06-28T00:51:53.763Z,14.83
2017-06-28T00:52:06.151Z,14.82
2017-06-28T00:52:19.669Z,14.9
2017-06-28T00:52:33.142Z,14.95
2017-06-28T00:52:46.583Z,14.94
2017-06-28T00:52:59.502Z,14.87
2017-06-28T00:53:12.999Z,14.95
2017-06-28T00:53:25.918Z,14.98
2017-06-28T00:53:39.400Z,14.98
2017-06-28T00:53:52.879Z,14.95
2017-06-28T00:54:06.373Z,15
2017-06-28T00:54:19.781Z,14.98
2017-06-28T00:54:33.229Z,15
2017-06-28T00:54:46.651Z,14.97
2017-06-28T00:54:59.826Z,15.01
2017-06-28T00:55:12.214Z,14.94
2017-06-28T00:55:25.686Z,14.97
2017-06-28T00:55:39.153Z,15.02
2017-06-28T00:55:52.583Z,14.98
2017-06-28T00:56:06.050Z,15.07
2017-06-28T00:56:19.000Z,15.07
2017-06-28T00:56:31.894Z,15.07
2017-06-28T00:56:44.856Z,15.02
2017-06-28T00:56:58.579Z,15
2017-06-28T00:57:11.496Z,15.01
2017-06-28T00:57:25.026Z,15.01
2017-06-28T00:57:37.406Z,14.98
2017-06-28T00:57:50.903Z,15.02
2017-06-28T00:58:04.424Z,15.08
2017-06-28T00:58:17.359Z,15
2017-06-28T00:58:30.861Z,14.98
2017-06-28T00:58:44.379Z,14.98
2017-06-28T00:58:57.845Z,14.97
2017-06-28T00:59:11.343Z,14.9
2017-06-28T00:59:24.828Z,14.93
2017-06-28T00:59:37.750Z,14.97
2017-06-28T00:59:51.193Z,14.93
2017-06-28T01:00:04.674Z,14.89
2017-06-28T01:00:17.634Z,14.85
2017-06-28T01:00:31.100Z,14.83
2017-06-28T01:00:44.590Z,14.94
2017-06-28T01:00:56.958Z,14.8
2017-06-28T01:01:10.390Z,14.83
2017-06-28T01:01:23.823Z,14.85
2017-06-28T01:01:37.275Z,14.79
2017-06-28T01:01:50.789Z,14.79
2017-06-28T01:02:04.211Z,14.77
2017-06-28T01:02:17.649Z,14.86
2017-06-28T01:02:31.174Z,14.8
2017-06-28T01:02:44.643Z,14.77
2017-06-28T01:02:57.073Z,14.77
2017-06-28T01:03:10.582Z,14.71
2017-06-28T01:03:24.065Z,14.77
2017-06-28T01:03:37.450Z,14.79
2017-06-28T01:03:50.881Z,14.74
2017-06-28T01:04:04.332Z,14.79
2017-06-28T01:04:17.820Z,14.75
2017-06-28T01:04:31.317Z,14.79
2017-06-28T01:04:44.823Z,14.74
2017-06-28T01:04:58.286Z,14.7
2017-06-28T01:05:11.789Z,14.67
2017-06-28T01:05:25.257Z,14.79
2017-06-28T01:05:38.856Z,14.77
2017-06-28T01:05:52.552Z,14.74
2017-06-28T01:06:05.993Z,14.75
2017-06-28T01:06:18.919Z,14.71
2017-06-28T01:06:32.350Z,14.66
2017-06-28T01:06:45.768Z,14.7
2017-06-28T01:06:59.235Z,14.71
2017-06-28T01:07:12.647Z,14.75
2017-06-28T01:07:26.168Z,14.75
2017-06-28T01:07:39.637Z,14.69
2017-06-28T01:07:53.070Z,14.67
2017-06-28T01:08:06.541Z,14.71
2017-06-28T01:08:19.960Z,14.67
2017-06-28T01:08:33.417Z,14.71
2017-06-28T01:08:46.859Z,14.7
2017-06-28T01:09:00.333Z,14.71
2017-06-28T01:09:13.774Z,14.7
2017-06-28T01:09:26.694Z,14.66
2017-06-28T01:09:40.182Z,14.69
2017-06-28T01:09:53.665Z,14.71
2017-06-28T01:10:07.112Z,14.61
2017-06-28T01:10:20.099Z,14.6
2017-06-28T01:10:33.054Z,14.61
2017-06-28T01:10:46.564Z,14.74
2017-06-28T01:10:59.989Z,14.63
2017-06-28T01:11:13.459Z,14.64
2017-06-28T01:11:26.906Z,14.69
2017-06-28T01:11:40.352Z,14.66
2017-06-28T01:11:53.815Z,14.66
2017-06-28T01:12:07.251Z,14.6
2017-06-28T01:12:20.638Z,14.61
2017-06-28T01:12:34.036Z,14.61
2017-06-28T01:12:47.548Z,14.71
2017-06-28T01:13:00.982Z,14.61
2017-06-28T01:13:13.924Z,14.66
2017-06-28T01:13:27.385Z,14.63
2017-06-28T01:13:40.838Z,14.67
2017-06-28T01:13:54.250Z,14.69
2017-06-28T01:14:07.210Z,14.64
2017-06-28T01:14:20.664Z,14.64
2017-06-28T01:14:34.114Z,14.67
2017-06-28T01:14:47.577Z,14.69
2017-06-28T01:15:00.485Z,14.6
2017-06-28T01:15:13.447Z,14.71
2017-06-28T01:15:26.877Z,14.67
2017-06-28T01:15:40.388Z,14.66
2017-06-28T01:15:53.821Z,14.71
2017-06-28T01:16:07.248Z,14.7
2017-06-28T01:16:20.703Z,14.67
2017-06-28T01:16:33.671Z,14.75
2017-06-28T01:16:47.127Z,14.75
2017-06-28T01:17:00.665Z,14.66
2017-06-28T01:17:14.169Z,14.71
2017-06-28T01:17:27.612Z,14.74
2017-06-28T01:17:40.500Z,14.71
2017-06-28T01:17:53.884Z,14.69
2017-06-28T01:18:07.321Z,14.79
2017-06-28T01:18:20.813Z,14.69
2017-06-28T01:18:33.696Z,14.67
2017-06-28T01:18:47.140Z,14.7
2017-06-28T01:19:00.605Z,14.82
2017-06-28T01:19:14.025Z,14.77
2017-06-28T01:19:27.506Z,14.77
2017-06-28T01:19:41.011Z,14.74
2017-06-28T01:19:54.487Z,14.66
2017-06-28T01:20:07.404Z,14.71
2017-06-28T01:20:20.855Z,14.79
2017-06-28T01:20:34.255Z,14.77
2017-06-28T01:20:47.157Z,14.82
2017-06-28T01:21:00.297Z,14.77
2017-06-28T01:21:13.676Z,14.67
2017-06-28T01:21:27.167Z,14.71
2017-06-28T01:21:39.561Z,14.71
2017-06-28T01:21:52.490Z,14.8
2017-06-28T01:22:05.957Z,14.77
2017-06-28T01:22:19.429Z,14.82
2017-06-28T01:22:32.860Z,14.79
2017-06-28T01:22:46.296Z,14.82
2017-06-28T01:22:59.775Z,14.8
2017-06-28T01:23:13.235Z,14.85
2017-06-28T01:23:26.175Z,14.8
2017-06-28T01:23:39.607Z,14.82
2017-06-28T01:23:53.042Z,14.82
2017-06-28T01:24:06.486Z,14.79
2017-06-28T01:24:19.367Z,14.85
2017-06-28T01:24:32.793Z,14.83
2017-06-28T01:24:46.251Z,14.83
2017-06-28T01:24:59.715Z,14.83
2017-06-28T01:25:12.646Z,14.75
2017-06-28T01:25:26.102Z,14.79
2017-06-28T01:25:39.551Z,14.85
2017-06-28T01:25:52.987Z,14.77
2017-06-28T01:26:06.440Z,14.79
2017-06-28T01:26:19.822Z,14.75
2017-06-28T01:26:32.793Z,14.77
2017-06-28T01:26:46.234Z,14.77
2017-06-28T01:26:59.647Z,14.67
2017-06-28T01:27:13.075Z,14.77
2017-06-28T01:27:25.500Z,14.71
2017-06-28T01:27:38.937Z,14.85
2017-06-28T01:27:52.367Z,14.67
2017-06-28T01:28:05.869Z,14.71
2017-06-28T01:28:18.789Z,14.75
2017-06-28T01:28:31.668Z,14.69
2017-06-28T01:28:45.134Z,14.7
2017-06-28T01:28:58.604Z,14.69
2017-06-28T01:29:12.021Z,14.7
2017-06-28T01:29:25.494Z,14.64
2017-06-28T01:29:38.933Z,14.66
2017-06-28T01:29:52.384Z,14.71
2017-06-28T01:30:05.828Z,14.63
2017-06-28T01:30:18.769Z,14.69
2017-06-28T01:30:31.719Z,14.64
2017-06-28T01:30:45.176Z,14.59
2017-06-28T01:30:58.627Z,14.59
2017-06-28T01:31:12.149Z,14.64
2017-06-28T01:31:25.056Z,14.57
2017-06-28T01:31:37.951Z,14.61
2017-06-28T01:31:51.477Z,14.66
2017-06-28T01:32:04.375Z,14.6
2017-06-28T01:32:17.841Z,14.63
2017-06-28T01:32:31.284Z,14.6
2017-06-28T01:32:44.758Z,14.6
2017-06-28T01:32:58.208Z,14.56
2017-06-28T01:33:11.678Z,14.59
2017-06-28T01:33:25.111Z,14.61
2017-06-28T01:33:38.075Z,14.52
2017-06-28T01:33:51.492Z,14.6
2017-06-28T01:34:04.905Z,14.6
2017-06-28T01:34:18.324Z,14.56
2017-06-28T01:34:31.774Z,14.56
2017-06-28T01:34:44.736Z,14.45
2017-06-28T01:34:58.129Z,14.49
2017-06-28T01:35:11.613Z,14.46
2017-06-28T01:35:25.053Z,14.45
2017-06-28T01:35:38.527Z,14.46
2017-06-28T01:35:51.993Z,14.49
2017-06-28T01:36:05.174Z,14.46
2017-06-28T01:36:18.659Z,14.46
2017-06-28T01:36:31.579Z,14.45
2017-06-28T01:36:45.024Z,14.45
2017-06-28T01:36:58.490Z,14.49
2017-06-28T01:37:11.971Z,14.45
2017-06-28T01:37:25.464Z,14.45
2017-06-28T01:37:38.897Z,14.44
2017-06-28T01:37:51.331Z,14.39
2017-06-28T01:38:04.774Z,14.44
2017-06-28T01:38:17.767Z,14.42
2017-06-28T01:38:30.778Z,14.41
2017-06-28T01:38:44.291Z,14.36
2017-06-28T01:38:57.802Z,14.39
2017-06-28T01:39:11.363Z,14.39
2017-06-28T01:39:24.778Z,14.36
2017-06-28T01:39:38.179Z,14.41
2017-06-28T01:39:51.079Z,14.42
2017-06-28T01:40:03.973Z,14.39
2017-06-28T01:40:17.485Z,14.41
2017-06-28T01:40:30.948Z,14.44
2017-06-28T01:40:44.434Z,14.42
2017-06-28T01:40:57.349Z,14.39
2017-06-28T01:41:10.775Z,14.41
2017-06-28T01:41:24.228Z,14.38
2017-06-28T01:41:37.724Z,14.44
2017-06-28T01:41:51.161Z,14.41
2017-06-28T01:42:04.610Z,14.38
2017-06-28T01:42:17.545Z,14.41
2017-06-28T01:42:30.462Z,14.39
2017-06-28T01:42:43.994Z,14.38
2017-06-28T01:42:56.380Z,14.39
2017-06-28T01:43:09.819Z,14.39
2017-06-28T01:43:22.259Z,14.41
2017-06-28T01:43:35.791Z,14.31
2017-06-28T01:43:49.253Z,14.39
2017-06-28T01:44:02.685Z,14.36
2017-06-28T01:44:15.622Z,14.41
2017-06-28T01:44:29.257Z,14.39
2017-06-28T01:44:42.642Z,14.39
2017-06-28T01:44:56.096Z,14.39
2017-06-28T01:45:09.497Z,14.36
2017-06-28T01:45:22.959Z,14.39
2017-06-28T01:45:36.392Z,14.39
2017-06-28T01:45:49.825Z,14.33
2017-06-28T01:46:02.736Z,14.34
2017-06-28T01:46:16.131Z,14.39
2017-06-28T01:46:29.588Z,14.34
2017-06-28T01:46:43.008Z,14.26
2017-06-28T01:46:56.436Z,14.3
2017-06-28T01:47:08.850Z,14.28
2017-06-28T01:47:21.778Z,14.27
2017-06-28T01:47:35.201Z,14.31
2017-06-28T01:47:48.605Z,14.24
2017-06-28T01:48:01.492Z,14.27
2017-06-28T01:48:14.432Z,14.28
2017-06-28T01:48:27.861Z,14.28
2017-06-28T01:48:41.297Z,14.26
2017-06-28T01:48:54.230Z,14.24
2017-06-28T01:49:07.705Z,14.3
2017-06-28T01:49:21.175Z,14.23
2017-06-28T01:49:34.620Z,14.28
2017-06-28T01:49:48.080Z,14.28
2017-06-28T01:50:01.531Z,14.23
2017-06-28T01:50:14.979Z,14.24
2017-06-28T01:50:28.370Z,14.24
2017-06-28T01:50:41.784Z,14.26
2017-06-28T01:50:54.186Z,14.27
2017-06-28T01:51:07.615Z,14.24
2017-06-28T01:51:21.276Z,14.19
2017-06-28T01:51:34.648Z,14.21
2017-06-28T01:51:48.045Z,14.28
2017-06-28T01:52:00.961Z,14.21
2017-06-28T01:52:14.499Z,14.19
2017-06-28T01:52:27.371Z,14.2
2017-06-28T01:52:40.758Z,14.15
2017-06-28T01:52:54.287Z,14.27
2017-06-28T01:53:07.701Z,14.16
2017-06-28T01:53:21.156Z,14.21
2017-06-28T01:53:34.589Z,14.19
2017-06-28T01:53:48.065Z,14.16
2017-06-28T01:54:00.959Z,14.19
2017-06-28T01:54:14.405Z,14.21
2017-06-28T01:54:27.932Z,14.11
2017-06-28T01:54:41.432Z,14.19
2017-06-28T01:54:54.919Z,14.12
2017-06-28T01:55:07.817Z,14.15
2017-06-28T01:55:20.732Z,14.16
2017-06-28T01:55:34.157Z,14.15
2017-06-28T01:55:47.620Z,14.19
2017-06-28T01:56:01.050Z,14.16
2017-06-28T01:56:13.962Z,14.19
2017-06-28T01:56:27.379Z,14.13
2017-06-28T01:56:40.779Z,14.12
2017-06-28T01:56:53.202Z,14.13
2017-06-28T01:57:06.663Z,14.12
2017-06-28T01:57:19.571Z,14.16
2017-06-28T01:57:32.500Z,14.11
2017-06-28T01:57:45.434Z,14.15
2017-06-28T01:57:57.822Z,14.16
2017-06-28T01:58:11.203Z,14.15
2017-06-28T01:58:24.646Z,14.12
2017-06-28T01:58:38.138Z,14.13
2017-06-28T01:58:51.060Z,14.15
2017-06-28T01:59:03.960Z,14.15
2017-06-28T01:59:17.422Z,14.13
2017-06-28T01:59:32.327Z,14.11
2017-06-28T01:59:45.737Z,14.13
2017-06-28T01:59:59.158Z,14.15
2017-06-28T02:00:12.538Z,14.19
2017-06-28T02:00:26.014Z,14.12
2017-06-28T02:00:39.413Z,14.26
2017-06-28T02:00:52.894Z,14.16
2017-06-28T02:01:06.400Z,14.15
2017-06-28T02:01:19.871Z,14.16
2017-06-28T02:01:33.284Z,14.16
2017-06-28T02:01:46.211Z,14.13
2017-06-28T02:01:59.456Z,14.19
2017-06-28T02:02:12.903Z,14.13
2017-06-28T02:02:26.560Z,14.16
2017-06-28T02:02:40.008Z,14.2
2017-06-28T02:02:53.393Z,14.15
2017-06-28T02:03:06.931Z,14.13
2017-06-28T02:03:20.391Z,14.23
2017-06-28T02:03:33.848Z,14.13
2017-06-28T02:03:47.252Z,14.19
2017-06-28T02:04:00.134Z,14.23
2017-06-28T02:04:13.625Z,14.2
2017-06-28T02:04:27.080Z,14.23
2017-06-28T02:04:39.475Z,14.19
2017-06-28T02:04:52.958Z,14.23
2017-06-28T02:05:05.359Z,14.19
2017-06-28T02:05:18.875Z,14.16
2017-06-28T02:05:31.799Z,14.16
2017-06-28T02:05:45.313Z,14.11
2017-06-28T02:05:59.045Z,14.16
2017-06-28T02:06:12.504Z,14.2
2017-06-28T02:06:25.730Z,14.19
2017-06-28T02:06:39.203Z,14.13
2017-06-28T02:06:52.692Z,14.16
2017-06-28T02:07:06.156Z,14.16
2017-06-28T02:07:19.109Z,14.16
2017-06-28T02:07:32.592Z,14.13
2017-06-28T02:07:46.034Z,14.16
2017-06-28T02:07:59.459Z,14.15
2017-06-28T02:08:12.390Z,14.13
2017-06-28T02:08:25.841Z,14.15
2017-06-28T02:08:39.314Z,14.11
2017-06-28T02:08:52.721Z,14.16
2017-06-28T02:09:05.611Z,14.11
2017-06-28T02:09:19.342Z,14.13
2017-06-28T02:09:32.813Z,14.12
2017-06-28T02:09:46.275Z,14.09
2017-06-28T02:09:59.205Z,14.12
2017-06-28T02:10:12.665Z,14.03
2017-06-28T02:10:26.074Z,14.12
2017-06-28T02:10:39.544Z,14.06
2017-06-28T02:10:52.474Z,14.06
2017-06-28T02:11:05.886Z,14.12
2017-06-28T02:11:18.814Z,14.11
2017-06-28T02:11:32.270Z,14.05
2017-06-28T02:11:45.186Z,14.02
2017-06-28T02:11:58.677Z,13.99
2017-06-28T02:12:11.661Z,13.97
2017-06-28T02:12:25.176Z,13.97
2017-06-28T02:12:38.149Z,13.97
2017-06-28T02:12:51.571Z,14.05
2017-06-28T02:13:04.498Z,13.99
2017-06-28T02:13:17.946Z,13.95
2017-06-28T02:13:31.450Z,14.01
2017-06-28T02:13:44.312Z,13.94
2017-06-28T02:13:57.765Z,14.01
2017-06-28T02:14:11.198Z,13.91
2017-06-28T02:14:24.619Z,13.9
2017-06-28T02:14:37.579Z,14.02
2017-06-28T02:14:51.038Z,14.01
2017-06-28T02:15:04.497Z,13.94
2017-06-28T02:15:17.988Z,14.02
2017-06-28T02:15:31.408Z,13.94
2017-06-28T02:15:44.922Z,13.95
2017-06-28T02:15:58.377Z,13.93
2017-06-28T02:16:11.791Z,13.9
2017-06-28T02:16:24.780Z,13.95
2017-06-28T02:16:38.208Z,14.02
2017-06-28T02:16:51.666Z,14.03
2017-06-28T02:17:04.646Z,13.91
2017-06-28T02:17:18.122Z,14.02
2017-06-28T02:17:31.651Z,13.93
2017-06-28T02:17:45.110Z,14.01
2017-06-28T02:17:58.545Z,14.03
2017-06-28T02:18:11.982Z,13.94
2017-06-28T02:18:24.934Z,14.02
2017-06-28T02:18:37.833Z,14.03
2017-06-28T02:18:51.336Z,13.99
2017-06-28T02:19:04.738Z,14.01
2017-06-28T02:19:18.157Z,14.03
2017-06-28T02:19:31.693Z,13.97
2017-06-28T02:19:45.125Z,13.9
2017-06-28T02:19:58.537Z,14.01
2017-06-28T02:20:11.965Z,14.01
2017-06-28T02:20:25.449Z,13.91
2017-06-28T02:20:38.931Z,14.01
2017-06-28T02:20:52.399Z,13.94
2017-06-28T02:21:05.925Z,13.99
2017-06-28T02:21:18.803Z,14.03
2017-06-28T02:21:32.047Z,13.93
2017-06-28T02:21:44.951Z,13.99
2017-06-28T02:21:58.409Z,13.99
2017-06-28T02:22:11.874Z,13.99
2017-06-28T02:22:25.334Z,13.94
2017-06-28T02:22:38.264Z,13.93
2017-06-28T02:22:51.205Z,13.93
2017-06-28T02:23:04.636Z,13.88
2017-06-28T02:23:17.617Z,13.91
2017-06-28T02:23:30.559Z,13.76
2017-06-28T02:23:43.436Z,13.91
2017-06-28T02:23:56.395Z,13.87
2017-06-28T02:24:09.885Z,13.78
2017-06-28T02:24:22.827Z,13.86
2017-06-28T02:24:36.272Z,13.87
2017-06-28T02:24:49.705Z,13.79
2017-06-28T02:25:03.162Z,13.88
2017-06-28T02:25:16.554Z,13.9
2017-06-28T02:25:29.649Z,13.78
2017-06-28T02:25:43.137Z,13.81
2017-06-28T02:25:56.642Z,13.83
2017-06-28T02:26:10.084Z,13.81
2017-06-28T02:26:23.513Z,13.83
2017-06-28T02:26:36.944Z,13.87
2017-06-28T02:26:50.369Z,13.81
2017-06-28T02:27:03.859Z,13.76
2017-06-28T02:27:17.344Z,13.84
2017-06-28T02:27:30.832Z,13.86
2017-06-28T02:27:44.297Z,13.73
2017-06-28T02:27:56.692Z,13.83
2017-06-28T02:28:10.108Z,13.81
2017-06-28T02:28:23.532Z,13.75
2017-06-28T02:28:36.419Z,13.78
2017-06-28T02:28:49.870Z,13.86
2017-06-28T02:29:02.752Z,13.75
2017-06-28T02:29:16.178Z,13.73
2017-06-28T02:29:29.631Z,13.75
2017-06-28T02:29:43.125Z,13.78
2017-06-28T02:29:56.333Z,13.68
2017-06-28T02:30:09.831Z,13.68
2017-06-28T02:30:23.264Z,13.78
2017-06-28T02:30:36.738Z,13.73
2017-06-28T02:30:50.184Z,13.69
2017-06-28T02:31:03.607Z,13.69
2017-06-28T02:31:16.578Z,13.75
2017-06-28T02:31:29.474Z,13.72
2017-06-28T02:31:42.406Z,13.69
2017-06-28T02:31:55.853Z,13.69
2017-06-28T02:32:08.726Z,13.69
2017-06-28T02:32:22.139Z,13.65
2017-06-28T02:32:35.035Z,13.69
2017-06-28T02:32:48.459Z,13.69
2017-06-28T02:33:01.957Z,13.65
2017-06-28T02:33:15.385Z,13.72
2017-06-28T02:33:28.856Z,13.63
2017-06-28T02:33:42.274Z,13.7
2017-06-28T02:33:55.713Z,13.69
2017-06-28T02:34:09.198Z,13.76
2017-06-28T02:34:22.647Z,13.68
2017-06-28T02:34:36.313Z,13.65
2017-06-28T02:34:49.803Z,13.75
2017-06-28T02:35:03.280Z,13.79
2017-06-28T02:35:16.698Z,13.73
2017-06-28T02:35:29.181Z,13.83
2017-06-28T02:35:42.600Z,13.86
2017-06-28T02:35:55.014Z,13.79
2017-06-28T02:36:08.432Z,13.86
2017-06-28T02:36:21.367Z,13.9
2017-06-28T02:36:35.040Z,13.76
2017-06-28T02:36:47.946Z,13.87
2017-06-28T02:37:01.397Z,13.86
2017-06-28T02:37:14.839Z,13.83
2017-06-28T02:37:28.223Z,13.79
2017-06-28T02:37:41.177Z,13.9
2017-06-28T02:37:54.135Z,13.83
2017-06-28T02:38:07.670Z,13.91
2017-06-28T02:38:21.116Z,13.76
2017-06-28T02:38:34.558Z,13.86
2017-06-28T02:38:47.986Z,13.83
2017-06-28T02:39:00.911Z,13.86
2017-06-28T02:39:14.321Z,13.76
2017-06-28T02:39:27.740Z,13.79
2017-06-28T02:39:41.247Z,13.88
2017-06-28T02:39:54.107Z,13.86
2017-06-28T02:40:07.514Z,13.87
2017-06-28T02:40:20.944Z,13.83
2017-06-28T02:40:33.872Z,13.83
2017-06-28T02:40:47.317Z,13.9
2017-06-28T02:41:00.204Z,13.83
2017-06-28T02:41:13.680Z,13.91
2017-06-28T02:41:27.180Z,13.91
2017-06-28T02:41:40.119Z,13.9
2017-06-28T02:41:53.015Z,13.9
2017-06-28T02:42:06.391Z,13.9
2017-06-28T02:42:19.804Z,13.79
2017-06-28T02:42:32.670Z,13.81
2017-06-28T02:42:46.140Z,13.84
2017-06-28T02:42:59.675Z,13.83
2017-06-28T02:43:13.160Z,13.79
2017-06-28T02:43:26.124Z,13.76
2017-06-28T02:43:39.566Z,13.86
2017-06-28T02:43:52.501Z,13.86
2017-06-28T02:44:05.920Z,13.84
2017-06-28T02:44:18.854Z,13.81
2017-06-28T02:44:31.780Z,13.81
2017-06-28T02:44:45.277Z,13.76
2017-06-28T02:44:58.735Z,13.81
2017-06-28T02:45:12.187Z,13.73
2017-06-28T02:45:25.715Z,13.79
2017-06-28T02:45:38.646Z,13.73
2017-06-28T02:45:52.098Z,13.75
2017-06-28T02:46:05.034Z,13.76
2017-06-28T02:46:18.494Z,13.73
2017-06-28T02:46:31.971Z,13.69
2017-06-28T02:46:44.357Z,13.73
2017-06-28T02:46:57.295Z,13.69
2017-06-28T02:47:10.149Z,13.66
2017-06-28T02:47:23.594Z,13.69
2017-06-28T02:47:37.016Z,13.68
2017-06-28T02:47:49.991Z,13.73
2017-06-28T02:48:03.425Z,13.72
2017-06-28T02:48:16.880Z,13.66
2017-06-28T02:48:29.893Z,13.72
2017-06-28T02:48:43.376Z,13.68
2017-06-28T02:48:56.776Z,13.68
2017-06-28T02:49:10.321Z,13.68
2017-06-28T02:49:23.781Z,13.7
2017-06-28T02:49:37.239Z,13.69
2017-06-28T02:49:50.690Z,13.7
2017-06-28T02:50:04.111Z,13.66
2017-06-28T02:50:17.625Z,13.65
2017-06-28T02:50:31.051Z,13.63
2017-06-28T02:50:44.522Z,13.66
2017-06-28T02:50:57.953Z,13.62
2017-06-28T02:51:11.383Z,13.62
2017-06-28T02:51:24.759Z,13.58
2017-06-28T02:51:37.883Z,13.69
2017-06-28T02:51:51.312Z,13.55
2017-06-28T02:52:04.274Z,13.68
2017-06-28T02:52:17.787Z,13.65